Time;durP1;ratioP1;P1;durP2;ratioP2;P2;SDS_P1;SDS_P2;PMS_P1;PMS_P2;Temp;Humidity;BMP_temperature;BMP_pressure;BME280_temperature;BME280_humidity;BME280_pressure;Samples;Min_cycle;Max_cycle;Signal;HPM_P1;HPM_P2
2021/01/30 00:02:22;;;;;;;9.80;3.87;;;;;;;-3.66;69.24;97912.05;1794518;78;21079;-59
2021/01/30 00:04:50;;;;;;;7.77;3.00;;;;;;;-3.68;69.33;97914.70;1796286;78;21438;-59
2021/01/30 00:07:17;;;;;;;6.83;3.10;;;;;;;-3.69;69.45;97926.56;1797915;78;22120;-58
2021/01/30 00:09:44;;;;;;;7.00;2.90;;;;;;;-3.69;69.49;97925.24;1793466;78;21186;-59
2021/01/30 00:12:12;;;;;;;5.43;2.00;;;;;;;-3.68;69.54;97928.30;1795757;78;21175;-59
2021/01/30 00:14:40;;;;;;;6.50;2.90;;;;;;;-3.68;69.60;97937.05;1805319;77;21155;-59
2021/01/30 00:17:07;;;;;;;11.17;3.30;;;;;;;-3.68;69.67;97930.92;1796656;77;22268;-59
2021/01/30 00:19:36;;;;;;;12.20;3.60;;;;;;;-3.69;69.70;97934.00;1792170;77;21174;-58
2021/01/30 00:22:07;;;;;;;8.03;3.13;;;;;;;-3.70;69.75;97944.55;1795339;77;21195;-59
2021/01/30 00:24:35;;;;;;;7.63;3.60;;;;;;;-3.70;69.85;97942.78;1795756;77;21197;-59
2021/01/30 00:27:04;;;;;;;6.57;3.37;;;;;;;-3.68;69.91;97942.31;1793894;78;21151;-58
2021/01/30 00:29:32;;;;;;;5.60;2.77;;;;;;;-3.65;69.88;97944.86;1790940;78;21995;-58
2021/01/30 00:32:01;;;;;;;8.13;3.77;;;;;;;-3.65;69.92;97940.91;1793283;78;21214;-58
2021/01/30 00:34:31;;;;;;;7.27;3.10;;;;;;;-3.65;69.86;97942.23;1794669;77;21574;-59
2021/01/30 00:37:06;;;;;;;8.30;3.80;;;;;;;-3.68;69.87;97942.31;1795000;77;21863;-60
2021/01/30 00:39:34;;;;;;;6.57;3.13;;;;;;;-3.68;69.88;97949.33;1787862;77;21162;-58
2021/01/30 00:42:02;;;;;;;7.03;2.37;;;;;;;-3.69;69.90;97955.48;1797026;78;21699;-59
2021/01/30 00:44:29;;;;;;;5.90;2.30;;;;;;;-3.68;69.94;97950.64;1795550;77;21242;-58
2021/01/30 00:46:57;;;;;;;6.50;2.37;;;;;;;-3.69;69.90;97943.65;1791824;78;21186;-59
2021/01/30 00:49:26;;;;;;;5.70;2.47;;;;;;;-3.72;69.84;97952.45;1794911;78;21166;-58
2021/01/30 00:51:53;;;;;;;5.47;3.37;;;;;;;-3.75;69.77;97952.98;1799964;77;21636;-59
2021/01/30 00:54:21;;;;;;;3.60;2.17;;;;;;;-3.80;69.81;97959.63;1799600;77;21569;-60
2021/01/30 00:56:53;;;;;;;4.63;2.57;;;;;;;-3.88;69.85;97961.55;1796998;77;21202;-59
2021/01/30 00:59:23;;;;;;;4.07;1.70;;;;;;;-3.90;69.85;97968.14;1779843;78;21190;-57
2021/01/30 01:01:50;;;;;;;4.47;2.13;;;;;;;-3.94;69.83;97972.19;1793650;77;22636;-57
2021/01/30 01:04:21;;;;;;;3.30;1.30;;;;;;;-4.02;69.85;97969.70;1793190;77;22003;-57
2021/01/30 01:06:49;;;;;;;6.37;2.47;;;;;;;-4.07;69.91;97970.66;1794581;78;22128;-58
2021/01/30 01:09:16;;;;;;;7.57;2.43;;;;;;;-4.10;69.97;97970.30;1801536;78;21170;-58
2021/01/30 01:11:46;;;;;;;6.17;2.40;;;;;;;-4.12;69.81;97968.58;1796420;77;21552;-58
2021/01/30 01:14:14;;;;;;;4.70;1.83;;;;;;;-4.16;69.86;97976.95;1796748;78;21445;-58
2021/01/30 01:16:41;;;;;;;5.13;2.23;;;;;;;-4.20;69.83;97976.61;1792449;78;21205;-57
2021/01/30 01:19:09;;;;;;;4.63;2.03;;;;;;;-4.24;69.83;97976.23;1720295;78;21613;-58
2021/01/30 01:21:36;;;;;;;6.40;2.43;;;;;;;-4.32;69.80;97979.44;1788677;78;21723;-58
2021/01/30 01:24:05;;;;;;;4.43;2.17;;;;;;;-4.37;69.86;97976.03;1793238;78;22900;-57
2021/01/30 01:26:32;;;;;;;4.83;2.10;;;;;;;-4.40;69.83;97980.02;1791624;78;21475;-58
2021/01/30 01:28:59;;;;;;;4.23;1.83;;;;;;;-4.48;69.80;97981.46;1790187;78;21198;-58
2021/01/30 01:31:27;;;;;;;4.13;1.77;;;;;;;-4.54;69.86;97982.02;1788558;78;23033;-58
2021/01/30 01:33:54;;;;;;;6.90;2.23;;;;;;;-4.58;69.84;97990.38;1797565;78;21163;-59
2021/01/30 01:36:21;;;;;;;7.83;3.30;;;;;;;-4.62;69.85;97979.08;1793689;78;21186;-57
2021/01/30 01:38:49;;;;;;;6.47;2.57;;;;;;;-4.63;69.80;97983.03;1794814;78;21183;-58
2021/01/30 01:41:17;;;;;;;5.20;2.17;;;;;;;-4.68;69.83;97988.34;1789512;78;21170;-58
2021/01/30 01:43:44;;;;;;;8.80;2.87;;;;;;;-4.73;69.85;97995.44;1790400;78;21250;-58
2021/01/30 01:46:31;;;;;;;8.77;2.73;;;;;;;-4.77;69.94;97995.08;1795774;78;21464;-58
2021/01/30 01:49:08;;;;;;;6.67;2.63;;;;;;;-4.80;69.94;97987.23;1790823;78;21613;-58
2021/01/30 01:51:53;;;;;;;9.17;2.87;;;;;;;-4.85;69.95;97985.14;1791510;78;21183;-58
2021/01/30 01:54:22;;;;;;;12.78;4.37;;;;;;;-4.88;69.98;97989.12;1792505;78;26942;-58
2021/01/30 01:56:53;;;;;;;11.57;2.80;;;;;;;-4.90;70.04;97979.08;1790242;78;22278;-58
2021/01/30 01:59:20;;;;;;;9.30;3.50;;;;;;;-4.91;70.02;97978.66;1793097;78;21223;-58
2021/01/30 02:01:47;;;;;;;7.87;3.00;;;;;;;-4.93;70.03;97981.73;1791622;78;21166;-57
2021/01/30 02:04:15;;;;;;;10.43;3.23;;;;;;;-4.94;69.98;97976.09;1742783;78;21099;-58
2021/01/30 02:06:45;;;;;;;10.03;4.70;;;;;;;-4.96;69.94;97970.87;1788345;78;21691;-58
2021/01/30 02:09:17;;;;;;;8.47;3.67;;;;;;;-5.00;69.97;97969.16;1801624;78;21720;-57
2021/01/30 02:12:06;;;;;;;8.83;2.73;;;;;;;-5.03;70.00;97960.05;1792645;77;21127;-57
2021/01/30 02:14:37;;;;;;;12.10;4.53;;;;;;;-5.06;69.99;97960.08;1793040;78;21210;-58
2021/01/30 02:17:13;;;;;;;9.90;3.43;;;;;;;-5.10;70.08;97951.81;1801610;78;21107;-57
2021/01/30 02:20:15;;;;;;;8.60;3.33;;;;;;;-5.11;70.12;97955.80;1782740;78;21139;-57
2021/01/30 02:23:19;;;;;;;7.80;2.67;;;;;;;-5.13;70.09;97951.89;1796329;78;22566;-55
2021/01/30 02:26:26;;;;;;;9.50;3.47;;;;;;;-5.18;70.12;97955.44;1794904;78;21103;-54
2021/01/30 02:29:49;;;;;;;9.03;3.57;;;;;;;-5.20;70.13;97954.62;1799201;78;21110;-57
2021/01/30 02:32:47;;;;;;;7.80;3.93;;;;;;;-5.20;70.06;97965.11;1795231;78;21098;-55
2021/01/30 02:36:02;;;;;;;7.10;3.13;;;;;;;-5.22;70.08;97953.77;1799992;78;21126;-53
2021/01/30 02:38:29;;;;;;;7.37;3.73;;;;;;;-5.22;70.13;97957.70;1791824;78;23013;-53
2021/01/30 02:41:01;;;;;;;7.23;3.67;;;;;;;-5.22;70.11;97960.33;1798601;78;21126;-54
2021/01/30 02:43:39;;;;;;;9.57;4.00;;;;;;;-5.24;70.13;97951.16;1779402;78;21107;-52
2021/01/30 02:46:11;;;;;;;8.70;3.70;;;;;;;-5.24;70.07;97955.09;1797365;78;21071;-52
2021/01/30 02:48:42;;;;;;;7.67;3.37;;;;;;;-5.26;70.09;97945.06;1780130;78;21641;-54
2021/01/30 02:51:12;;;;;;;10.00;3.77;;;;;;;-5.28;70.14;97952.11;1794395;78;21229;-56
2021/01/30 02:53:47;;;;;;;7.07;2.60;;;;;;;-5.29;70.09;97953.44;1795973;78;21463;-55
2021/01/30 02:56:14;;;;;;;9.85;2.92;;;;;;;-5.32;70.07;97949.53;1797325;78;21522;-54
2021/01/30 02:58:48;;;;;;;9.17;2.77;;;;;;;-5.34;70.12;97948.24;1795014;78;21107;-55
2021/01/30 03:01:16;;;;;;;5.60;2.80;;;;;;;-5.35;70.08;97950.44;1794295;78;21146;-55
2021/01/30 03:03:43;;;;;;;6.43;3.03;;;;;;;-5.39;70.10;97948.32;1796350;78;22200;-54
2021/01/30 03:06:19;;;;;;;7.03;3.77;;;;;;;-5.40;70.13;97949.20;1746225;78;21194;-55
2021/01/30 03:08:57;;;;;;;5.10;2.30;;;;;;;-5.41;70.10;97947.47;1793912;78;22164;-55
2021/01/30 03:11:30;;;;;;;6.40;2.43;;;;;;;-5.42;70.14;97939.17;1797545;78;21107;-55
2021/01/30 03:14:00;;;;;;;6.57;2.57;;;;;;;-5.42;70.16;97946.17;1796180;78;21171;-55
2021/01/30 03:16:30;;;;;;;6.77;2.93;;;;;;;-5.46;70.01;97941.43;1795033;78;21205;-55
2021/01/30 03:19:08;;;;;;;7.57;3.00;;;;;;;-5.48;70.11;97934.47;1794228;78;21134;-57
2021/01/30 03:21:36;;;;;;;7.07;2.67;;;;;;;-5.51;70.16;97937.12;1799159;78;21132;-56
2021/01/30 03:24:04;;;;;;;8.00;3.07;;;;;;;-5.56;70.18;97939.81;1794612;78;21416;-55
2021/01/30 03:26:33;;;;;;;6.73;2.97;;;;;;;-5.58;70.10;97929.78;1796028;78;21494;-56
2021/01/30 03:29:01;;;;;;;8.17;3.27;;;;;;;-5.60;70.25;97930.24;1792944;78;21333;-57
2021/01/30 03:31:28;;;;;;;6.07;2.50;;;;;;;-5.61;70.29;97919.33;1792989;78;21198;-56
2021/01/30 03:33:55;;;;;;;6.87;3.53;;;;;;;-5.63;70.45;97911.09;1794760;78;21186;-57
2021/01/30 03:36:23;;;;;;;6.53;2.43;;;;;;;-5.61;70.57;97912.78;1792876;78;21233;-56
2021/01/30 03:38:50;;;;;;;9.87;4.03;;;;;;;-5.59;70.46;97913.63;1789337;78;21643;-58
2021/01/30 03:41:17;;;;;;;4.60;2.27;;;;;;;-5.58;70.42;97918.43;1793104;78;21593;-56
2021/01/30 03:43:44;;;;;;;7.67;2.80;;;;;;;-5.60;70.47;97921.06;1799187;78;21179;-58
2021/01/30 03:46:11;;;;;;;5.93;2.77;;;;;;;-5.59;70.45;97920.63;1795218;78;21142;-57
2021/01/30 03:48:39;;;;;;;4.77;2.07;;;;;;;-5.63;70.54;97917.64;1797892;78;21179;-56
2021/01/30 03:51:06;;;;;;;8.23;3.83;;;;;;;-5.64;70.33;97924.64;1793704;78;21573;-58
2021/01/30 03:53:33;;;;;;;5.83;2.83;;;;;;;-5.70;70.44;97933.89;1791705;78;21390;-55
2021/01/30 03:56:00;;;;;;;5.87;2.37;;;;;;;-5.74;70.56;97929.13;1789973;78;21206;-57
2021/01/30 03:58:28;;;;;;;7.57;2.37;;;;;;;-5.74;70.71;97931.75;1796934;78;21193;-56
2021/01/30 04:00:55;;;;;;;6.00;2.47;;;;;;;-5.74;70.76;97927.81;1799742;78;21182;-56
2021/01/30 04:03:22;;;;;;;5.27;1.97;;;;;;;-5.70;70.85;97920.80;1794668;78;22310;-56
2021/01/30 04:05:49;;;;;;;3.90;2.10;;;;;;;-5.66;70.91;97922.47;1795960;78;21997;-58
2021/01/30 04:08:16;;;;;;;6.70;2.23;;;;;;;-5.65;70.84;97921.59;1799152;78;21167;-58
2021/01/30 04:10:45;;;;;;;6.80;2.37;;;;;;;-5.66;70.80;97916.36;1792974;78;21172;-57
2021/01/30 04:13:12;;;;;;;7.33;2.60;;;;;;;-5.64;70.96;97920.70;1798918;78;21107;-56
2021/01/30 04:15:42;;;;;;;6.03;2.63;;;;;;;-5.62;70.99;97918.94;1763586;78;21178;-57
2021/01/30 04:18:10;;;;;;;4.73;2.07;;;;;;;-5.58;70.90;97931.54;1790274;78;21577;-56
2021/01/30 04:20:38;;;;;;;4.20;2.70;;;;;;;-5.59;70.84;97939.84;1794764;78;21183;-56
2021/01/30 04:23:07;;;;;;;6.80;2.50;;;;;;;-5.58;70.67;97937.65;1794624;78;21183;-57
2021/01/30 04:25:35;;;;;;;6.73;2.57;;;;;;;-5.57;70.55;97932.84;1798945;78;20968;-57
2021/01/30 04:28:03;;;;;;;6.13;2.23;;;;;;;-5.56;70.33;97939.81;1794375;78;21182;-57
2021/01/30 04:30:31;;;;;;;5.40;2.17;;;;;;;-5.56;70.25;97934.58;1797183;78;22224;-56
2021/01/30 04:33:00;;;;;;;5.47;2.67;;;;;;;-5.55;70.16;97940.24;1796224;78;21150;-57
2021/01/30 04:35:32;;;;;;;5.60;2.70;;;;;;;-5.56;70.13;97942.87;1793200;78;21214;-56
2021/01/30 04:37:59;;;;;;;5.83;2.57;;;;;;;-5.57;70.03;97949.88;1792003;78;21189;-56
2021/01/30 04:40:37;;;;;;;7.17;2.50;;;;;;;-5.60;69.92;97945.97;1793355;78;21186;-56
2021/01/30 04:43:21;;;;;;;5.63;2.37;;;;;;;-5.63;69.91;97944.72;1795265;78;22065;-58
2021/01/30 04:46:14;;;;;;;7.80;3.73;;;;;;;-5.65;69.81;97947.80;1795691;78;21249;-56
2021/01/30 04:48:50;;;;;;;6.27;2.73;;;;;;;-5.73;69.69;97936.11;1763012;78;22036;-56
2021/01/30 04:51:27;;;;;;;8.23;2.90;;;;;;;-5.80;69.76;97939.70;1797424;78;21242;-54
2021/01/30 04:54:18;;;;;;;6.80;2.77;;;;;;;-5.89;69.83;97941.14;1773477;78;21127;-55
2021/01/30 04:57:11;;;;;;;4.77;2.57;;;;;;;-5.95;69.95;97931.16;1795078;78;21702;-55
2021/01/30 05:00:15;;;;;;;3.83;2.50;;;;;;;-5.97;70.04;97936.44;1796318;78;21296;-54
2021/01/30 05:02:58;;;;;;;7.00;3.53;;;;;;;-5.97;70.06;97927.72;1678287;83;21184;-54
2021/01/30 05:05:25;;;;;;;8.77;4.07;;;;;;;-5.95;70.13;97931.16;1675076;83;21261;-56
2021/01/30 05:08:19;;;;;;;17.00;7.23;;;;;;;-5.92;70.07;97925.89;1676092;83;21202;-55
2021/01/30 05:10:59;;;;;;;31.42;12.07;;;;;;;-5.93;70.04;97927.64;1678563;83;24879;-55
2021/01/30 05:13:38;;;;;;;28.17;11.13;;;;;;;-5.92;70.24;97938.99;1648287;84;21176;-56
2021/01/30 05:16:09;;;;;;;16.70;7.23;;;;;;;-5.92;70.24;97938.55;1676631;83;21135;-55
2021/01/30 05:18:45;;;;;;;15.33;6.20;;;;;;;-5.92;70.22;97942.48;1673047;83;21116;-55
2021/01/30 05:21:39;;;;;;;12.13;6.17;;;;;;;-5.91;70.22;97948.59;1677717;83;21143;-56
2021/01/30 05:24:08;;;;;;;13.97;7.00;;;;;;;-5.91;70.08;97949.45;1679460;83;21362;-55
2021/01/30 05:27:14;;;;;;;15.87;7.53;;;;;;;-5.90;70.11;97950.33;1677914;83;21147;-55
2021/01/30 05:30:01;;;;;;;15.77;8.20;;;;;;;-5.90;70.10;97951.20;1675417;83;21439;-55
2021/01/30 05:32:52;;;;;;;25.73;9.43;;;;;;;-5.89;70.00;97954.25;1677904;83;21119;-55
2021/01/30 05:35:30;;;;;;;21.70;8.67;;;;;;;-5.90;70.06;97952.51;1678679;83;21103;-56
2021/01/30 05:38:18;;;;;;;20.83;10.10;;;;;;;-5.90;70.07;97955.57;1675151;83;21645;-55
2021/01/30 05:40:47;;;;;;;27.73;12.67;;;;;;;-5.94;70.06;97954.72;1675487;83;21323;-55
2021/01/30 05:43:38;;;;;;;19.70;10.50;;;;;;;-5.94;70.06;97965.64;1709142;81;21508;-54
2021/01/30 05:46:06;;;;;;;25.80;12.50;;;;;;;-5.97;69.83;97967.01;1693781;82;21161;-55
2021/01/30 05:48:37;;;;;;;29.23;11.40;;;;;;;-5.98;69.79;97970.51;1705875;81;21143;-54
2021/01/30 05:51:49;;;;;;;17.07;9.37;;;;;;;-5.98;69.79;97977.06;1703353;81;21660;-56
2021/01/30 05:54:16;;;;;;;20.93;10.00;;;;;;;-5.99;69.75;97970.08;1702514;81;21601;-54
2021/01/30 05:56:45;;;;;;;31.77;12.03;;;;;;;-6.00;69.74;97970.52;1706025;81;21150;-54
2021/01/30 05:59:26;;;;;;;21.57;11.23;;;;;;;-6.00;69.63;97970.96;1703288;81;21099;-57
2021/01/30 06:02:14;;;;;;;26.17;9.90;;;;;;;-6.02;69.75;97965.73;1720905;81;21192;-55
2021/01/30 06:04:42;;;;;;;27.47;12.00;;;;;;;-6.00;69.80;97967.90;1720084;81;21653;-56
2021/01/30 06:07:32;;;;;;;27.70;12.77;;;;;;;-5.99;69.84;97970.08;1731698;81;21848;-55
2021/01/30 06:10:01;;;;;;;41.23;16.63;;;;;;;-5.98;69.93;97979.68;1721321;81;21190;-56
2021/01/30 06:12:32;;;;;;;28.23;12.23;;;;;;;-5.94;70.02;97987.91;1692968;81;22006;-54
2021/01/30 06:15:21;;;;;;;24.93;10.90;;;;;;;-5.90;70.09;97990.50;1724560;81;21186;-55
2021/01/30 06:17:49;;;;;;;18.97;9.77;;;;;;;-5.86;70.29;97982.11;1727636;81;21987;-56
2021/01/30 06:20:23;;;;;;;17.73;7.73;;;;;;;-5.78;70.46;97986.81;1726542;81;21868;-55
2021/01/30 06:23:11;;;;;;;18.93;8.80;;;;;;;-5.74;70.62;97985.91;1716260;82;21200;-54
2021/01/30 06:25:41;;;;;;;19.47;9.90;;;;;;;-5.67;70.77;97973.16;1720016;82;21515;-54
2021/01/30 06:28:22;;;;;;;21.27;9.03;;;;;;;-5.60;70.79;97968.25;1718138;82;21133;-55
2021/01/30 06:30:49;;;;;;;20.60;9.80;;;;;;;-5.55;70.87;97967.77;1732907;81;21974;-54
2021/01/30 06:33:33;;;;;;;26.07;12.57;;;;;;;-5.47;70.97;97963.73;1717753;81;21658;-54
2021/01/30 06:36:23;;;;;;;29.23;12.60;;;;;;;-5.41;70.98;97964.95;1718350;82;21513;-55
2021/01/30 06:39:01;;;;;;;25.00;12.73;;;;;;;-5.36;70.95;97961.37;1668749;82;21199;-55
2021/01/30 06:41:30;;;;;;;28.13;12.53;;;;;;;-5.29;70.99;97951.69;1711875;82;21215;-57
2021/01/30 06:44:26;;;;;;;26.77;11.60;;;;;;;-5.23;70.85;97950.72;1684795;82;21352;-57
2021/01/30 06:47:10;;;;;;;27.58;12.00;;;;;;;-5.18;70.74;97955.44;1760270;80;21241;-55
2021/01/30 06:49:43;;;;;;;23.60;10.47;;;;;;;-5.13;70.71;97950.57;1766472;80;21193;-54
2021/01/30 06:52:15;;;;;;;25.13;12.00;;;;;;;-5.08;70.66;97947.42;1762947;80;21203;-55
2021/01/30 06:54:42;;;;;;;27.67;11.97;;;;;;;-5.03;70.66;97939.50;1764919;80;21170;-55
2021/01/30 06:57:29;;;;;;;19.87;9.80;;;;;;;-4.99;70.62;97937.23;1726319;81;22462;-56
2021/01/30 07:00:19;;;;;;;22.20;9.90;;;;;;;-4.94;70.64;97926.69;1712090;80;21277;-54
2021/01/30 07:02:49;;;;;;;17.00;8.53;;;;;;;-4.88;70.68;97937.94;1709805;81;21316;-53
2021/01/30 07:05:34;;;;;;;15.50;8.27;;;;;;;-4.81;70.81;97928.20;1713017;81;21182;-53
2021/01/30 07:08:31;;;;;;;16.07;6.58;;;;;;;-4.75;70.84;97930.28;1716816;81;21197;-57
2021/01/30 07:11:21;;;;;;;29.73;12.30;;;;;;;-4.69;70.90;97924.08;1710190;81;22281;-56
2021/01/30 07:14:03;;;;;;;29.90;13.57;;;;;;;-4.60;70.72;97920.86;1718571;81;22097;-56
2021/01/30 07:16:48;;;;;;;33.03;14.93;;;;;;;-4.68;70.43;97923.19;1676359;82;21206;-56
2021/01/30 07:19:42;;;;;;;29.70;13.83;;;;;;;-4.73;70.63;97924.56;1717825;80;21206;-55
2021/01/30 07:22:12;;;;;;;32.13;13.60;;;;;;;-4.70;70.57;97924.97;1673702;82;21234;-55
2021/01/30 07:25:09;;;;;;;30.97;13.00;;;;;;;-4.70;70.43;97936.34;1715307;80;21720;-54
2021/01/30 07:27:47;;;;;;;43.80;15.97;;;;;;;-4.71;70.50;97932.42;1710715;81;21214;-56
2021/01/30 07:33:12;;;;;;;53.10;17.63;;;;;;;-4.69;70.58;97922.32;1757224;78;27451;-55
2021/01/30 07:35:50;;;;;;;49.47;17.33;;;;;;;-4.71;70.67;97928.48;1723845;80;21561;-56
2021/01/30 07:38:24;;;;;;;48.30;18.90;;;;;;;-4.65;70.85;97930.99;1725980;82;21436;-56
2021/01/30 07:41:02;;;;;;;41.87;15.57;;;;;;;-4.60;70.74;97935.73;1725569;80;22077;-58
2021/01/30 07:43:36;;;;;;;55.07;20.40;;;;;;;-4.54;70.77;97933.44;1724609;80;21008;-57
2021/01/30 07:46:18;;;;;;;33.38;14.93;;;;;;;-4.46;70.79;97944.67;1720616;81;21582;-57
2021/01/30 07:49:02;;;;;;;23.97;11.40;;;;;;;-4.38;70.82;97950.66;1722521;81;21487;-57
2021/01/30 07:51:35;;;;;;;20.27;8.67;;;;;;;-4.31;70.78;97939.14;1724328;80;21483;-56
2021/01/30 07:54:03;;;;;;;17.60;7.10;;;;;;;-4.24;70.77;97942.08;1729029;81;21017;-57
2021/01/30 07:56:43;;;;;;;14.03;6.10;;;;;;;-4.15;70.88;97948.47;1724204;81;21674;-58
2021/01/30 07:59:35;;;;;;;21.53;9.30;;;;;;;-4.07;70.77;97951.83;1725452;81;21218;-56
2021/01/30 08:02:33;;;;;;;27.93;10.83;;;;;;;-3.98;70.67;97958.22;1729882;81;21099;-57
2021/01/30 08:05:09;;;;;;;20.23;10.13;;;;;;;-3.90;70.49;97955.45;1675676;81;22170;-58
2021/01/30 08:07:56;;;;;;;20.80;9.77;;;;;;;-3.83;70.26;97956.61;1724765;80;21844;-54
2021/01/30 08:10:37;;;;;;;16.73;8.90;;;;;;;-3.77;70.04;97949.52;1661412;82;21230;-54
2021/01/30 08:13:40;;;;;;;24.30;11.40;;;;;;;-3.71;69.86;97941.05;1727467;80;21378;-55
2021/01/30 08:16:26;;;;;;;18.80;9.53;;;;;;;-3.65;69.70;97932.16;1724943;81;21132;-56
2021/01/30 08:18:54;;;;;;;19.77;9.60;;;;;;;-3.61;69.59;97934.70;1730304;81;21376;-54
2021/01/30 08:21:52;;;;;;;17.43;9.60;;;;;;;-3.56;69.51;97935.91;1731224;81;21147;-54
2021/01/30 08:24:25;;;;;;;22.20;10.67;;;;;;;-3.50;69.31;97931.86;1726995;81;21104;-56
2021/01/30 08:27:11;;;;;;;20.17;9.20;;;;;;;-3.41;69.14;97922.91;1695719;82;21092;-55
2021/01/30 08:29:44;;;;;;;19.30;9.97;;;;;;;-3.35;68.96;97918.37;1728504;80;21088;-55
2021/01/30 08:32:28;;;;;;;25.30;9.60;;;;;;;-3.31;68.92;97924.41;1724901;81;22236;-57
2021/01/30 08:35:25;;;;;;;15.37;9.13;;;;;;;-3.27;68.70;97923.01;1712280;81;21140;-55
2021/01/30 08:38:09;;;;;;;;;;;;;;;-3.22;68.43;97931.65;1719099;82;21147;-54
2021/01/30 08:40:56;;;;;;;12.60;6.07;;;;;;;-3.20;68.49;97931.17;1714207;81;20863;-55
2021/01/30 08:43:39;;;;;;;12.47;6.37;;;;;;;-3.15;68.55;97942.92;1715507;81;21535;-54
2021/01/30 08:46:33;;;;;;;18.80;7.40;;;;;;;-3.09;68.63;97941.47;1715586;82;22380;-55
2021/01/30 08:49:23;;;;;;;13.55;7.42;;;;;;;-3.03;68.85;97950.97;1719569;81;21116;-55
2021/01/30 08:52:17;;;;;;;12.00;7.27;;;;;;;-2.96;68.82;97947.30;1711488;82;21476;-56
2021/01/30 08:54:45;;;;;;;13.37;6.37;;;;;;;-2.92;68.92;97941.94;1712372;81;21543;-56
2021/01/30 08:57:36;;;;;;;13.00;6.57;;;;;;;-2.87;69.04;97938.73;1716025;82;21191;-57
2021/01/30 09:00:30;;;;;;;15.67;6.10;;;;;;;-2.82;69.26;97932.93;1713389;82;22244;-56
2021/01/30 09:03:00;;;;;;;;;;;;;;;-2.77;69.41;97927.54;1716904;81;21163;-57
2021/01/30 09:05:38;;;;;;;16.20;7.80;;;;;;;-2.72;69.58;97925.64;1685013;84;20272;-55
2021/01/30 09:08:23;;;;;;;11.93;6.80;;;;;;;-2.67;69.60;97934.31;1656379;84;21487;-56
2021/01/30 09:10:50;;;;;;;20.77;8.58;;;;;;;-2.65;69.65;97928.56;1674508;84;21813;-55
2021/01/30 09:13:18;;;;;;;9.97;6.70;;;;;;;-2.62;69.67;97919.70;1665941;84;21838;-56
2021/01/30 09:15:53;;;;;;;12.80;7.73;;;;;;;-2.62;69.70;97907.84;1676914;84;21203;-55
2021/01/30 09:18:35;;;;;;;13.77;7.93;;;;;;;-2.61;69.72;97913.53;1676460;83;21239;-56
2021/01/30 09:21:32;;;;;;;19.10;9.03;;;;;;;-2.65;69.75;97908.81;1676442;84;21147;-56
2021/01/30 09:24:48;;;;;;;17.77;9.67;;;;;;;-2.67;69.80;97911.94;1650206;86;21502;-55
2021/01/30 09:27:22;;;;;;;20.23;11.68;;;;;;;-2.74;69.92;97905.09;1604284;86;21748;-56
2021/01/30 09:29:51;;;;;;;15.80;9.73;;;;;;;-2.74;70.13;97902.01;1667581;83;21151;-55
2021/01/30 09:32:28;;;;;;;15.93;10.40;;;;;;;-2.74;70.20;97899.83;1676653;83;21249;-56
2021/01/30 09:35:06;;;;;;;16.30;9.80;;;;;;;-2.73;70.24;97898.92;1686959;83;21230;-55
2021/01/30 09:37:42;;;;;;;14.97;10.13;;;;;;;-2.75;70.29;97892.82;1692831;83;21250;-56
2021/01/30 09:40:27;;;;;;;20.90;11.93;;;;;;;-2.79;70.33;97892.02;1677230;84;21242;-56
2021/01/30 09:43:02;;;;;;;20.10;11.97;;;;;;;-2.79;70.53;97892.47;1661183;85;22085;-56
2021/01/30 09:45:30;;;;;;;22.32;11.50;;;;;;;-2.82;70.57;97888.16;1663130;85;21234;-55
2021/01/30 09:47:57;;;;;;;21.83;11.17;;;;;;;-2.87;70.61;97874.23;1682116;84;21195;-58
2021/01/30 09:50:42;;;;;;;26.93;12.63;;;;;;;-2.89;70.71;97873.87;1673654;85;21586;-56
2021/01/30 09:53:13;;;;;;;24.47;12.10;;;;;;;-2.92;70.84;97872.17;1662525;85;21661;-57
2021/01/30 09:55:40;;;;;;;18.40;12.30;;;;;;;-2.95;70.99;97860.39;1679419;83;21157;-56
2021/01/30 09:58:13;;;;;;;22.27;11.17;;;;;;;-2.94;71.19;97863.89;1682216;84;21177;-56
2021/01/30 10:00:42;;;;;;;22.87;11.57;;;;;;;-2.94;71.27;97861.26;1676141;84;21865;-56
2021/01/30 10:03:19;;;;;;;21.17;11.77;;;;;;;-2.94;71.44;97863.89;1686242;83;22606;-55
2021/01/30 10:05:48;;;;;;;19.27;10.80;;;;;;;-2.93;71.48;97864.31;1689493;83;23429;-56
2021/01/30 10:08:29;;;;;;;20.30;10.13;;;;;;;-2.93;71.68;97856.41;1678661;84;21890;-55
2021/01/30 10:11:15;;;;;;;19.17;8.73;;;;;;;-2.90;71.74;97855.03;1658912;85;21192;-56
2021/01/30 10:13:50;;;;;;;17.13;9.10;;;;;;;-2.89;71.85;97842.28;1687967;82;21126;-55
2021/01/30 10:16:20;;;;;;;14.83;8.70;;;;;;;-2.92;72.02;97837.95;1677592;84;21794;-55
2021/01/30 10:18:55;;;;;;;17.60;8.57;;;;;;;-2.90;72.13;97833.52;1661048;85;21364;-55
2021/01/30 10:21:34;;;;;;;14.83;7.87;;;;;;;-2.92;72.23;97830.05;1673102;83;21079;-55
2021/01/30 10:24:25;;;;;;;22.63;10.43;;;;;;;-2.90;72.42;97823.44;1682714;84;21203;-54
2021/01/30 10:27:14;;;;;;;19.10;10.37;;;;;;;-2.87;72.51;97821.58;1661464;85;21667;-56
2021/01/30 10:29:41;;;;;;;18.90;9.97;;;;;;;-2.84;72.61;97826.77;1668353;84;21681;-55
2021/01/30 10:32:17;;;;;;;19.03;10.03;;;;;;;-2.82;72.70;97821.02;1693312;83;21313;-56
2021/01/30 10:34:53;;;;;;;22.20;11.33;;;;;;;-2.80;72.80;97811.74;1675238;83;21241;-55
2021/01/30 10:37:32;;;;;;;19.17;10.63;;;;;;;-2.77;72.95;97812.54;1670676;84;21246;-57
2021/01/30 10:40:18;;;;;;;15.53;10.37;;;;;;;-2.71;73.08;97811.50;1828027;76;25406;-56
2021/01/30 10:42:45;;;;;;;16.63;9.17;;;;;;;-2.74;73.19;97806.34;1686169;82;21239;-56
2021/01/30 10:45:22;;;;;;;16.80;8.43;;;;;;;-2.69;73.38;97804.44;1690940;84;21219;-55
2021/01/30 10:47:54;;;;;;;13.73;8.20;;;;;;;-2.64;73.43;97798.61;1733883;82;21214;-57
2021/01/30 10:50:26;;;;;;;15.73;8.33;;;;;;;-2.60;73.55;97789.70;1734067;80;21531;-55
2021/01/30 10:52:54;;;;;;;15.07;9.07;;;;;;;-2.56;73.64;97784.78;1709024;82;21396;-56
2021/01/30 10:55:26;;;;;;;13.17;7.77;;;;;;;-2.53;73.72;97778.09;1732378;82;21215;-57
2021/01/30 10:57:56;;;;;;;13.73;7.17;;;;;;;-2.52;73.81;97764.02;1740013;80;21642;-56
2021/01/30 11:00:27;;;;;;;11.07;6.50;;;;;;;-2.50;73.89;97761.34;1736543;81;21016;-55
2021/01/30 11:02:55;;;;;;;10.47;5.13;;;;;;;-2.48;74.00;97759.09;1738899;80;21199;-57
2021/01/30 11:05:28;;;;;;;12.23;5.33;;;;;;;-2.44;74.09;97754.13;1740700;80;21190;-57
2021/01/30 11:08:02;;;;;;;7.40;5.33;;;;;;;-2.40;73.98;97747.88;1743935;81;21443;-57
2021/01/30 11:10:38;;;;;;;10.93;5.50;;;;;;;-2.38;74.02;97745.17;1740408;81;21200;-56
2021/01/30 11:13:22;;;;;;;11.33;5.70;;;;;;;-2.33;74.12;97739.34;1741898;81;21134;-57
2021/01/30 11:15:49;;;;;;;9.30;4.62;;;;;;;-2.27;74.13;97733.88;1738470;80;21000;-56
2021/01/30 11:18:33;;;;;;;18.47;7.73;;;;;;;-2.20;74.07;97730.60;1738596;80;21462;-55
2021/01/30 11:21:02;;;;;;;10.20;5.60;;;;;;;-2.16;73.90;97725.66;1739868;81;21194;-57
2021/01/30 11:23:46;;;;;;;9.30;6.67;;;;;;;-2.15;74.01;97724.30;1739506;81;21772;-56
2021/01/30 11:26:35;;;;;;;11.50;6.80;;;;;;;-2.15;73.89;97715.53;1741975;81;21127;-55
2021/01/30 11:29:06;;;;;;;11.13;6.60;;;;;;;-2.21;73.95;97707.82;1742889;81;21504;-56
2021/01/30 11:31:37;;;;;;;12.40;6.27;;;;;;;-2.26;74.06;97704.44;1740413;80;21103;-55
2021/01/30 11:34:04;;;;;;;13.97;7.67;;;;;;;-2.27;74.17;97693.48;1740527;81;21094;-57
2021/01/30 11:36:31;;;;;;;10.87;6.07;;;;;;;-2.26;74.21;97692.13;1743296;80;21880;-57
2021/01/30 11:39:03;;;;;;;11.13;6.23;;;;;;;-2.24;74.36;97687.68;1747950;80;21125;-54
2021/01/30 11:41:31;;;;;;;11.03;6.03;;;;;;;-2.20;74.35;97681.84;1757865;81;21168;-55
2021/01/30 11:43:58;;;;;;;14.13;8.83;;;;;;;-2.18;74.36;97672.98;1759042;81;21109;-56
2021/01/30 11:46:26;;;;;;;11.80;6.70;;;;;;;-2.17;74.40;97672.08;1757838;79;21120;-56
2021/01/30 11:48:55;;;;;;;12.43;7.00;;;;;;;-2.13;74.40;97670.23;1757730;81;22016;-57
2021/01/30 11:51:26;;;;;;;13.27;7.87;;;;;;;-2.11;74.41;97665.30;1756243;81;21511;-55
2021/01/30 11:53:53;;;;;;;9.50;6.30;;;;;;;-2.11;74.25;97660.02;1754181;81;21552;-56
2021/01/30 11:56:21;;;;;;;14.93;8.07;;;;;;;-2.11;74.31;97661.34;1754336;79;21240;-55
2021/01/30 11:58:48;;;;;;;11.47;6.20;;;;;;;-2.13;74.31;97660.55;1752536;79;21489;-56
2021/01/30 12:01:15;;;;;;;11.13;6.30;;;;;;;-2.15;74.35;97654.91;1756236;81;21213;-57
2021/01/30 12:03:43;;;;;;;9.57;5.13;;;;;;;-2.14;74.38;97652.23;1757306;81;21206;-56
2021/01/30 12:06:10;;;;;;;14.23;6.63;;;;;;;-2.11;74.34;97648.61;1753460;81;21202;-56
2021/01/30 12:08:38;;;;;;;10.10;6.83;;;;;;;-2.10;74.25;97643.30;1755063;81;21217;-57
2021/01/30 12:11:05;;;;;;;11.00;6.43;;;;;;;-2.08;74.23;97641.94;1754407;81;21226;-56